createdAt,value
2023-04-11T00:02:07.514Z,100473.67
2023-04-11T00:04:38.482Z,100472.01
2023-04-11T00:07:08.128Z,100471.45
2023-04-11T00:09:37.427Z,100469.96
2023-04-11T00:12:07.648Z,100463.23
2023-04-11T00:14:37.735Z,100462.89
2023-04-11T00:17:08.977Z,100458.16
2023-04-11T00:19:38.602Z,100455.13
2023-04-11T00:22:08.949Z,100447.74
2023-04-11T00:24:37.912Z,100450.48
2023-04-11T00:27:06.775Z,100448.34
2023-04-11T00:29:36.430Z,100440.88
2023-04-11T00:32:06.010Z,100443.74
2023-04-11T00:34:35.321Z,100433.98
2023-04-11T00:37:04.231Z,100439.88
2023-04-11T00:39:34.776Z,100432.48
2023-04-11T00:42:08.628Z,100432.34
2023-04-11T00:44:39.722Z,100435.99
2023-04-11T00:47:09.487Z,100437.91
2023-04-11T00:49:39.024Z,100430.83
2023-04-11T00:52:08.829Z,100434.66
2023-04-11T00:54:37.963Z,100434.85
2023-04-11T00:57:07.747Z,100433.42
2023-04-11T00:59:36.919Z,100428.14
2023-04-11T01:02:05.910Z,100433.35
2023-04-11T01:04:34.978Z,100430.37
2023-04-11T01:07:07.007Z,100428.33
2023-04-11T01:09:39.046Z,100428.42
2023-04-11T01:12:08.853Z,100425.33
2023-04-11T01:14:38.401Z,100423.75
2023-04-11T01:17:11.982Z,100422.79
2023-04-11T01:19:41.479Z,100421.35
2023-04-11T01:22:14.162Z,100420.81
2023-04-11T01:24:43.431Z,100420.31
2023-04-11T01:27:12.369Z,100420.91
2023-04-11T01:29:41.358Z,100422.80
2023-04-11T01:32:10.366Z,100419.00
2023-04-11T01:34:41.715Z,100411.05
2023-04-11T01:37:10.716Z,100407.20
2023-04-11T01:39:39.990Z,100411.79
2023-04-11T01:42:10.570Z,100403.48
2023-04-11T01:44:40.543Z,100402.70
2023-04-11T01:47:09.694Z,100402.23
2023-04-11T01:49:38.966Z,100399.40
2023-04-11T01:52:08.001Z,100394.09
2023-04-11T01:54:37.069Z,100392.33
2023-04-11T01:57:06.458Z,100385.86
2023-04-11T01:59:35.299Z,100381.20
2023-04-11T02:02:04.475Z,100380.86
2023-04-11T02:04:33.705Z,100375.77
2023-04-11T02:07:02.685Z,100378.91
2023-04-11T02:09:31.714Z,100375.19
2023-04-11T02:12:00.737Z,100370.45
2023-04-11T02:14:40.280Z,100366.65
2023-04-11T02:17:10.140Z,100361.82
2023-04-11T02:19:40.671Z,100361.11
2023-04-11T02:22:09.684Z,100359.17
2023-04-11T02:24:38.786Z,100356.20
2023-04-11T02:27:08.242Z,100354.70
2023-04-11T02:29:37.287Z,100348.14
2023-04-11T02:32:06.735Z,100354.36
2023-04-11T02:34:35.940Z,100348.23
2023-04-11T02:37:05.106Z,100350.76
2023-04-11T02:39:34.158Z,100345.42
2023-04-11T02:42:03.150Z,100345.73
2023-04-11T02:44:32.181Z,100336.68
2023-04-11T02:47:01.251Z,100338.61
2023-04-11T02:49:30.639Z,100336.05
2023-04-11T02:51:59.639Z,100330.50
2023-04-11T02:54:28.839Z,100329.20
2023-04-11T02:56:57.839Z,100329.91
2023-04-11T02:59:26.999Z,100326.63
2023-04-11T03:01:59.392Z,100327.02
2023-04-11T03:04:29.348Z,100327.91
2023-04-11T03:06:58.522Z,100320.17
2023-04-11T03:09:27.511Z,100320.35
2023-04-11T03:11:56.950Z,100316.63
2023-04-11T03:14:26.036Z,100315.65
2023-04-11T03:16:55.132Z,100314.94
2023-04-11T03:19:23.994Z,100320.54
2023-04-11T03:21:53.017Z,100313.58
2023-04-11T03:24:22.348Z,100307.11
2023-04-11T03:26:51.356Z,100310.48
2023-04-11T03:29:20.454Z,100308.22
2023-04-11T03:31:49.551Z,100302.59
2023-04-11T03:34:18.565Z,100301.11
2023-04-11T03:36:47.564Z,100292.96
2023-04-11T03:39:16.480Z,100291.07
2023-04-11T03:41:45.494Z,100282.44
2023-04-11T03:44:14.600Z,100289.22
2023-04-11T03:46:43.551Z,100286.52
2023-04-11T03:49:12.667Z,100290.69
2023-04-11T03:51:41.679Z,100288.58
2023-04-11T03:54:10.654Z,100285.69
2023-04-11T03:56:40.237Z,100287.05
2023-04-11T03:59:09.317Z,100280.88
2023-04-11T04:01:39.200Z,100278.04
2023-04-11T04:04:08.409Z,100273.43
2023-04-11T04:06:38.135Z,100267.38
2023-04-11T04:09:07.148Z,100268.67
2023-04-11T04:11:36.182Z,100264.15
2023-04-11T04:14:05.070Z,100263.21
2023-04-11T04:16:34.350Z,100265.17
2023-04-11T04:19:03.268Z,100266.48
2023-04-11T04:21:32.265Z,100260.08
2023-04-11T04:24:03.114Z,100248.92
2023-04-11T04:26:32.037Z,100249.02
2023-04-11T04:29:04.066Z,100247.22
2023-04-11T04:31:34.166Z,100245.83
2023-04-11T04:34:08.111Z,100244.27
2023-04-11T04:36:45.802Z,100244.92
2023-04-11T04:39:17.407Z,100237.81
2023-04-11T04:41:48.441Z,100237.27
2023-04-11T04:44:17.677Z,100233.48
2023-04-11T04:46:46.625Z,100228.77
2023-04-11T04:49:15.630Z,100229.19
2023-04-11T04:51:44.634Z,100223.98
2023-04-11T04:54:13.710Z,100223.38
2023-04-11T04:56:43.487Z,100225.80
2023-04-11T04:59:15.053Z,100220.05
2023-04-11T05:01:44.166Z,100215.70
2023-04-11T05:04:13.600Z,100210.48
2023-04-11T05:06:42.679Z,100211.65
2023-04-11T05:09:12.037Z,100211.84
2023-04-11T05:11:41.004Z,100213.15
2023-04-11T05:14:10.077Z,100212.50
2023-04-11T05:16:40.025Z,100207.66
2023-04-11T05:19:09.144Z,100208.37
2023-04-11T05:21:38.362Z,100211.40
2023-04-11T05:24:07.642Z,100208.94
2023-04-11T05:26:36.678Z,100207.80
2023-04-11T05:29:06.302Z,100204.73
2023-04-11T05:31:37.216Z,100203.64
2023-04-11T05:34:06.135Z,100201.70
2023-04-11T05:36:36.167Z,100197.13
2023-04-11T05:39:05.536Z,100193.48
2023-04-11T05:41:34.487Z,100190.17
2023-04-11T05:44:03.484Z,100194.67
2023-04-11T05:46:36.063Z,100186.84
2023-04-11T05:49:05.165Z,100186.93
2023-04-11T05:51:34.043Z,100180.92
2023-04-11T05:54:03.300Z,100179.89
2023-04-11T05:56:32.292Z,100181.78
2023-04-11T05:59:01.144Z,100183.06
2023-04-11T06:01:30.092Z,100180.16
2023-04-11T06:03:59.164Z,100178.14
2023-04-11T06:06:28.684Z,100175.56
2023-04-11T06:08:57.762Z,100174.85
2023-04-11T06:11:27.505Z,100171.41
2023-04-11T06:13:56.526Z,100160.95
2023-04-11T06:16:25.754Z,100153.05
2023-04-11T06:18:54.891Z,100152.02
2023-04-11T06:21:23.902Z,100154.39
2023-04-11T06:23:52.777Z,100148.17
2023-04-11T06:26:21.755Z,100150.73
2023-04-11T06:28:50.717Z,100145.77
2023-04-11T06:31:19.786Z,100144.52
2023-04-11T06:33:48.773Z,100144.80
2023-04-11T06:36:17.844Z,100146.45
2023-04-11T06:38:46.907Z,100141.58
2023-04-11T06:41:15.897Z,100134.63
2023-04-11T06:43:44.803Z,100132.34
2023-04-11T06:46:13.904Z,100126.41
2023-04-11T06:48:43.002Z,100124.68
2023-04-11T06:51:12.117Z,100118.38
2023-04-11T06:53:41.117Z,100114.89
2023-04-11T06:56:11.459Z,100114.30
2023-04-11T06:58:40.448Z,100111.84
2023-04-11T07:01:09.487Z,100106.16
2023-04-11T07:03:38.677Z,100112.08
2023-04-11T07:06:08.754Z,100106.27
2023-04-11T07:08:37.746Z,100106.44
2023-04-11T07:11:07.764Z,100103.34
2023-04-11T07:13:36.702Z,100101.09
2023-04-11T07:16:07.286Z,100101.66
2023-04-11T07:18:36.319Z,100095.05
2023-04-11T07:21:05.756Z,100093.11
2023-04-11T07:23:34.574Z,100092.96
2023-04-11T07:26:03.842Z,100086.57
2023-04-11T07:28:33.443Z,100084.89
2023-04-11T07:31:02.417Z,100088.42
2023-04-11T07:33:31.371Z,100084.90
2023-04-11T07:36:00.562Z,100086.44
2023-04-11T07:38:29.655Z,100076.05
2023-04-11T07:41:00.334Z,100081.35
2023-04-11T07:43:29.714Z,100072.83
2023-04-11T07:45:59.433Z,100069.65
2023-04-11T07:48:30.436Z,100071.46
2023-04-11T07:50:59.375Z,100065.27
2023-04-11T07:53:30.466Z,100056.59
2023-04-11T07:55:59.377Z,100054.73
2023-04-11T07:58:28.558Z,100055.67
2023-04-11T08:00:58.313Z,100053.20
2023-04-11T08:03:27.725Z,100051.80
2023-04-11T08:05:56.814Z,100048.42
2023-04-11T08:08:25.847Z,100042.70
2023-04-11T08:10:54.714Z,100038.13
2023-04-11T08:13:23.636Z,100028.51
2023-04-11T08:15:52.624Z,100033.98
2023-04-11T08:18:21.570Z,100017.86
2023-04-11T08:20:50.839Z,100023.23
2023-04-11T08:23:21.585Z,100015.94
2023-04-11T08:25:50.445Z,100015.42
2023-04-11T08:28:19.379Z,100010.81
2023-04-11T08:30:52.491Z,100015.98
2023-04-11T08:33:23.649Z,100012.08
2023-04-11T08:35:52.787Z,100007.98
2023-04-11T08:38:22.052Z,100007.50
2023-04-11T08:40:51.092Z,99998.64
2023-04-11T08:43:20.020Z,99992.92
2023-04-11T08:45:49.354Z,99983.06
2023-04-11T08:48:21.302Z,99983.55
2023-04-11T08:50:50.382Z,99970.71
2023-04-11T08:53:24.041Z,99973.83
2023-04-11T08:55:53.269Z,99967.11
2023-04-11T08:58:22.856Z,99968.55
2023-04-11T09:00:52.103Z,99956.10
2023-04-11T09:03:21.131Z,99953.89
2023-04-11T09:05:50.394Z,99950.52
2023-04-11T09:08:19.730Z,99941.41
2023-04-11T09:10:49.004Z,99943.65
2023-04-11T09:13:22.754Z,99933.55
2023-04-11T09:16:06.170Z,99934.95
2023-04-11T09:18:36.838Z,99933.65
2023-04-11T09:21:07.934Z,99935.02
2023-04-11T09:23:37.900Z,99931.08
2023-04-11T09:26:09.063Z,99927.85
2023-04-11T09:28:42.677Z,99926.64
2023-04-11T09:31:12.935Z,99933.64
2023-04-11T09:33:54.312Z,99922.73
2023-04-11T09:36:26.579Z,99910.52
2023-04-11T09:38:56.202Z,99918.48
2023-04-11T09:41:32.784Z,99909.05
2023-04-11T09:44:01.911Z,99906.06
2023-04-11T09:46:30.979Z,99898.55
2023-04-11T09:49:00.687Z,99889.96
2023-04-11T09:51:36.645Z,99866.07
2023-04-11T09:54:08.352Z,99861.20
2023-04-11T09:56:37.582Z,99853.84
2023-04-11T09:59:07.226Z,99861.60
2023-04-11T10:01:37.207Z,99851.45
2023-04-11T10:04:06.351Z,99847.77
2023-04-11T10:06:41.618Z,99857.14
2023-04-11T10:09:12.857Z,99849.80
2023-04-11T10:11:43.431Z,99847.27
2023-04-11T10:14:44.279Z,99848.50
2023-04-11T10:17:17.888Z,99844.44
2023-04-11T10:19:51.071Z,99844.17
2023-04-11T10:22:55.788Z,99842.61
2023-04-11T10:25:24.950Z,99832.64
2023-04-11T10:27:59.927Z,99836.62
2023-04-11T10:31:02.423Z,99836.30
2023-04-11T10:33:32.038Z,99840.75
2023-04-11T10:36:04.720Z,99841.80
2023-04-11T10:38:50.158Z,99835.19
2023-04-11T10:41:25.932Z,99834.14
2023-04-11T10:44:15.070Z,99832.20
2023-04-11T10:46:49.092Z,99835.07
2023-04-11T10:49:35.824Z,99843.86
2023-04-11T10:52:22.299Z,99845.22
2023-04-11T10:54:52.878Z,99839.86
2023-04-11T10:57:22.637Z,99823.87
2023-04-11T10:59:59.231Z,99829.05
2023-04-11T11:02:38.093Z,99822.98
2023-04-11T11:05:22.646Z,99837.12
2023-04-11T11:07:53.366Z,99838.51
2023-04-11T11:10:46.373Z,99837.05
2023-04-11T11:13:16.476Z,99832.48
2023-04-11T11:15:49.878Z,99833.97
2023-04-11T11:18:19.111Z,99828.20
2023-04-11T11:20:48.078Z,99821.23
2023-04-11T11:23:17.959Z,99813.20
2023-04-11T11:25:54.708Z,99803.73
2023-04-11T11:28:24.200Z,99813.53
2023-04-11T11:30:55.698Z,99810.84
2023-04-11T11:33:26.462Z,99818.45
2023-04-11T11:35:59.985Z,99818.80
2023-04-11T11:38:30.599Z,99809.77
2023-04-11T11:41:00.368Z,99816.61
2023-04-11T11:43:29.596Z,99806.59
2023-04-11T11:46:14.253Z,99807.09
2023-04-11T11:48:58.467Z,99811.66
2023-04-11T11:51:27.589Z,99801.56
2023-04-11T11:54:08.506Z,99804.97
2023-04-11T11:56:38.723Z,99791.73
2023-04-11T11:59:09.713Z,99802.08
2023-04-11T12:01:41.644Z,99800.55
2023-04-11T12:04:12.611Z,99795.27
2023-04-11T12:06:45.317Z,99795.48
2023-04-11T12:09:14.288Z,99795.60
2023-04-11T12:11:45.260Z,99795.70
2023-04-11T12:14:23.202Z,99785.74
2023-04-11T12:16:55.273Z,99779.91
2023-04-11T12:19:24.413Z,99773.58
2023-04-11T12:21:53.418Z,99779.02
2023-04-11T12:24:22.340Z,99772.37
2023-04-11T12:27:05.622Z,99762.07
2023-04-11T12:29:35.812Z,99758.73
2023-04-11T12:32:04.991Z,99763.54
2023-04-11T12:34:34.006Z,99762.29
2023-04-11T12:37:02.985Z,99756.00
2023-04-11T12:39:32.780Z,99749.49
2023-04-11T12:42:01.682Z,99756.45
2023-04-11T12:44:30.730Z,99755.00
2023-04-11T12:46:59.835Z,99749.55
2023-04-11T12:49:28.759Z,99751.23
2023-04-11T12:51:57.698Z,99751.86
2023-04-11T12:54:26.726Z,99746.54
2023-04-11T12:56:58.924Z,99746.54
2023-04-11T12:59:29.245Z,99746.52
2023-04-11T13:02:00.088Z,99746.73
2023-04-11T13:04:29.536Z,99739.38
2023-04-11T13:07:00.700Z,99737.20
2023-04-11T13:09:31.369Z,99740.22
2023-04-11T13:12:01.547Z,99737.54
2023-04-11T13:14:30.489Z,99732.94
2023-04-11T13:16:59.684Z,99734.95
2023-04-11T13:19:30.352Z,99733.52
2023-04-11T13:21:59.299Z,99735.25
2023-04-11T13:24:28.336Z,99746.42
2023-04-11T13:26:58.331Z,99748.30
2023-04-11T13:29:27.496Z,99758.84
2023-04-11T13:31:57.252Z,99750.27
2023-04-11T13:34:26.777Z,99751.47
2023-04-11T13:36:55.655Z,99751.89
2023-04-11T13:39:24.652Z,99751.14
2023-04-11T13:41:53.665Z,99755.77
2023-04-11T13:44:22.768Z,99751.23
2023-04-11T13:46:51.784Z,99755.67
2023-04-11T13:49:20.842Z,99756.60
2023-04-11T13:51:49.673Z,99758.77
2023-04-11T13:54:18.660Z,99763.14
2023-04-11T13:56:47.556Z,99762.23
2023-04-11T13:59:16.486Z,99763.23
2023-04-11T14:01:45.559Z,99766.78
2023-04-11T14:04:15.103Z,99767.80
2023-04-11T14:06:44.308Z,99764.27
2023-04-11T14:09:13.670Z,99765.98
2023-04-11T14:11:42.620Z,99763.13
2023-04-11T14:14:11.574Z,99765.73
2023-04-11T14:16:40.554Z,99764.63
2023-04-11T14:19:09.445Z,99767.62
2023-04-11T14:21:38.443Z,99761.02
2023-04-11T14:24:08.091Z,99763.59
2023-04-11T14:26:37.300Z,99766.23
2023-04-11T14:29:06.388Z,99765.19
2023-04-11T14:31:36.387Z,99765.04
2023-04-11T14:34:05.930Z,99759.83
2023-04-11T14:36:35.048Z,99757.67
2023-04-11T14:39:04.768Z,99751.02
2023-04-11T14:41:33.748Z,99754.48
2023-04-11T14:44:02.719Z,99745.69
2023-04-11T14:46:31.734Z,99745.70
2023-04-11T14:49:01.366Z,99741.73
2023-04-11T14:51:30.563Z,99734.94
2023-04-11T14:54:00.142Z,99740.87
2023-04-11T14:56:29.306Z,99735.21
2023-04-11T14:58:58.362Z,99728.78
2023-04-11T15:01:27.608Z,99728.75
2023-04-11T15:03:56.754Z,99723.27
2023-04-11T15:06:26.872Z,99716.40
2023-04-11T15:08:55.871Z,99718.08
2023-04-11T15:11:25.660Z,99718.11
2023-04-11T15:13:55.021Z,99725.13
2023-04-11T15:16:24.221Z,99722.57
2023-04-11T15:18:53.331Z,99723.84
2023-04-11T15:21:22.350Z,99728.63
2023-04-11T15:23:51.857Z,99730.92
2023-04-11T15:26:21.578Z,99741.35
2023-04-11T15:28:50.780Z,99743.98
2023-04-11T15:31:25.477Z,99739.65
2023-04-11T15:33:56.358Z,99755.66
2023-04-11T15:36:25.610Z,99746.96
2023-04-11T15:38:55.061Z,99744.06
2023-04-11T15:41:24.049Z,99752.13
2023-04-11T15:43:53.112Z,99753.99
2023-04-11T15:46:22.084Z,99747.59
2023-04-11T15:48:51.141Z,99751.96
2023-04-11T15:51:20.076Z,99755.70
2023-04-11T15:53:49.937Z,99760.98
2023-04-11T15:56:19.918Z,99762.61
2023-04-11T15:58:49.842Z,99757.07
2023-04-11T16:01:23.139Z,99760.11
2023-04-11T16:03:52.426Z,99757.38
2023-04-11T16:06:21.968Z,99753.74
2023-04-11T16:08:51.246Z,99748.59
2023-04-11T16:11:20.458Z,99745.21
2023-04-11T16:13:49.432Z,99740.27
2023-04-11T16:16:18.423Z,99741.00
2023-04-11T16:18:47.730Z,99733.85
2023-04-11T16:21:17.334Z,99731.20
2023-04-11T16:23:46.347Z,99737.40
2023-04-11T16:26:16.299Z,99734.42
2023-04-11T16:28:45.286Z,99730.67
2023-04-11T16:31:18.775Z,99730.03
2023-04-11T16:33:47.755Z,99734.61
2023-04-11T16:36:20.430Z,99722.72
2023-04-11T16:38:49.580Z,99721.16
2023-04-11T16:41:18.570Z,99718.63
2023-04-11T16:43:47.553Z,99720.56
2023-04-11T16:46:16.934Z,99723.16
2023-04-11T16:48:45.999Z,99717.24
2023-04-11T16:51:17.773Z,99713.05
2023-04-11T16:53:46.954Z,99708.52
2023-04-11T16:56:17.384Z,99712.39
2023-04-11T16:58:46.501Z,99705.33
2023-04-11T17:01:15.622Z,99703.29
2023-04-11T17:03:45.011Z,99698.67
2023-04-11T17:06:15.111Z,99697.38
2023-04-11T17:08:44.654Z,99694.96
2023-04-11T17:11:13.902Z,99692.84
2023-04-11T17:13:44.572Z,99686.61
2023-04-11T17:16:13.597Z,99689.27
2023-04-11T17:18:43.036Z,99688.48
2023-04-11T17:21:12.100Z,99692.48
2023-04-11T17:23:43.444Z,99696.20
2023-04-11T17:26:13.714Z,99699.60
2023-04-11T17:28:42.714Z,99703.77
2023-04-11T17:31:13.324Z,99710.58
2023-04-11T17:33:42.920Z,99711.71
2023-04-11T17:36:13.986Z,99706.17
2023-04-11T17:38:43.103Z,99711.34
2023-04-11T17:41:15.834Z,99710.45
2023-04-11T17:43:44.989Z,99714.42
2023-04-11T17:46:14.132Z,99715.95
2023-04-11T17:48:43.293Z,99713.41
2023-04-11T17:51:12.141Z,99712.61
2023-04-11T17:53:41.182Z,99704.07
2023-04-11T17:56:11.066Z,99699.98
2023-04-11T17:58:43.635Z,99699.98
2023-04-11T18:01:12.900Z,99701.60
2023-04-11T18:03:44.338Z,99699.58
2023-04-11T18:06:13.488Z,99703.30
2023-04-11T18:08:51.024Z,99704.44
2023-04-11T18:11:21.180Z,99700.14
2023-04-11T18:13:50.695Z,99708.21
2023-04-11T18:16:20.291Z,99704.06
2023-04-11T18:18:49.411Z,99686.30
2023-04-11T18:21:20.890Z,99694.08
2023-04-11T18:23:50.112Z,99692.05
2023-04-11T18:26:19.042Z,99689.98
2023-04-11T18:28:48.236Z,99695.33
2023-04-11T18:31:17.620Z,99697.79
2023-04-11T18:33:48.020Z,99705.05
2023-04-11T18:36:17.876Z,99705.94
2023-04-11T18:38:52.932Z,99708.29
2023-04-11T18:41:24.517Z,99705.86
2023-04-11T18:43:54.968Z,99703.20
2023-04-11T18:46:24.352Z,99702.35
2023-04-11T18:48:53.960Z,99708.71
2023-04-11T18:51:24.692Z,99705.34
2023-04-11T18:53:55.619Z,99696.09
2023-04-11T18:56:26.271Z,99686.46
2023-04-11T18:58:59.455Z,99684.70
2023-04-11T19:01:34.285Z,99678.01
2023-04-11T19:04:07.620Z,99674.42
2023-04-11T19:06:37.436Z,99675.45
2023-04-11T19:09:06.894Z,99673.25
2023-04-11T19:11:37.893Z,99680.09
2023-04-11T19:14:08.106Z,99675.27
2023-04-11T19:16:37.386Z,99674.81
2023-04-11T19:19:06.932Z,99671.83
2023-04-11T19:21:36.314Z,99668.80
2023-04-11T19:24:06.454Z,99665.52
2023-04-11T19:26:35.634Z,99664.63
2023-04-11T19:29:05.637Z,99660.50
2023-04-11T19:31:35.025Z,99657.58
2023-04-11T19:34:04.171Z,99654.22
2023-04-11T19:36:33.375Z,99651.16
2023-04-11T19:39:03.274Z,99653.23
2023-04-11T19:41:32.555Z,99649.68
2023-04-11T19:44:01.627Z,99651.17
2023-04-11T19:46:30.985Z,99648.71
2023-04-11T19:49:00.116Z,99650.92
2023-04-11T19:51:29.531Z,99646.38
2023-04-11T19:53:58.997Z,99651.47
2023-04-11T19:56:28.570Z,99649.94
2023-04-11T19:58:57.609Z,99649.70
2023-04-11T20:01:28.611Z,99643.73
2023-04-11T20:03:57.893Z,99639.17
2023-04-11T20:06:27.561Z,99637.85
2023-04-11T20:08:56.910Z,99637.54
2023-04-11T20:11:27.965Z,99635.36
2023-04-11T20:13:58.427Z,99633.84
2023-04-11T20:16:28.309Z,99628.42
2023-04-11T20:18:57.178Z,99630.56
2023-04-11T20:21:26.661Z,99633.77
2023-04-11T20:23:56.040Z,99632.14
2023-04-11T20:26:26.595Z,99630.21
2023-04-11T20:28:57.662Z,99627.70
2023-04-11T20:31:26.930Z,99623.69
2023-04-11T20:33:56.430Z,99626.59
2023-04-11T20:36:26.910Z,99629.16
2023-04-11T20:38:57.537Z,99621.79
2023-04-11T20:41:26.851Z,99624.02
2023-04-11T20:43:56.372Z,99622.15
2023-04-11T20:46:29.244Z,99621.61
2023-04-11T20:48:58.429Z,99622.38
2023-04-11T20:51:27.415Z,99620.23
2023-04-11T20:53:56.652Z,99622.02
2023-04-11T20:56:25.897Z,99619.50
2023-04-11T20:58:54.892Z,99615.52
2023-04-11T21:01:24.324Z,99615.12
2023-04-11T21:03:53.640Z,99616.95
2023-04-11T21:06:22.788Z,99612.89
2023-04-11T21:08:51.801Z,99613.14
2023-04-11T21:11:20.842Z,99613.80
2023-04-11T21:13:50.538Z,99612.52
2023-04-11T21:16:19.732Z,99613.07
2023-04-11T21:18:49.019Z,99608.42
2023-04-11T21:21:17.997Z,99609.29
2023-04-11T21:23:46.844Z,99608.55
2023-04-11T21:26:16.299Z,99606.20
2023-04-11T21:28:45.322Z,99608.74
2023-04-11T21:31:14.296Z,99605.77
2023-04-11T21:33:46.093Z,99605.96
2023-04-11T21:36:14.933Z,99607.31
2023-04-11T21:38:43.902Z,99603.61
2023-04-11T21:41:12.871Z,99603.70
2023-04-11T21:43:41.954Z,99601.26
2023-04-11T21:46:10.890Z,99597.80
2023-04-11T21:48:41.414Z,99597.14
2023-04-11T21:51:10.817Z,99595.61
2023-04-11T21:53:39.791Z,99589.70
2023-04-11T21:56:10.411Z,99586.58
2023-04-11T21:58:39.453Z,99589.11
2023-04-11T22:01:11.141Z,99579.96
2023-04-11T22:03:41.542Z,99581.08
2023-04-11T22:06:11.809Z,99576.23
2023-04-11T22:08:41.586Z,99573.97
2023-04-11T22:11:13.616Z,99571.54
2023-04-11T22:13:45.685Z,99567.61
2023-04-11T22:16:14.748Z,99567.23
2023-04-11T22:18:46.725Z,99569.52
2023-04-11T22:21:18.892Z,99566.48
2023-04-11T22:23:49.623Z,99567.15
2023-04-11T22:26:25.596Z,99567.28
2023-04-11T22:28:56.324Z,99563.66
2023-04-11T22:31:29.949Z,99563.49
2023-04-11T22:33:59.281Z,99565.11
2023-04-11T22:36:34.734Z,99565.27
2023-04-11T22:39:05.012Z,99560.63
2023-04-11T22:41:35.572Z,99560.45
2023-04-11T22:44:05.334Z,99557.23
2023-04-11T22:46:38.006Z,99549.56
2023-04-11T22:49:09.105Z,99558.71
2023-04-11T22:51:40.282Z,99556.37
2023-04-11T22:54:09.446Z,99555.30
2023-04-11T22:56:38.450Z,99550.23
2023-04-11T22:59:07.724Z,99536.83
2023-04-11T23:01:36.959Z,99532.86
2023-04-11T23:04:06.411Z,99530.68
2023-04-11T23:06:35.505Z,99529.41
2023-04-11T23:09:06.121Z,99529.48
2023-04-11T23:11:35.036Z,99527.85
2023-04-11T23:14:04.072Z,99534.27
2023-04-11T23:16:33.220Z,99531.79
2023-04-11T23:19:03.428Z,99528.83
2023-04-11T23:21:33.122Z,99526.63
2023-04-11T23:24:02.051Z,99528.63
2023-04-11T23:26:31.076Z,99530.49
2023-04-11T23:29:02.137Z,99531.64
2023-04-11T23:31:32.016Z,99528.31
2023-04-11T23:34:01.315Z,99522.84
2023-04-11T23:36:30.581Z,99524.59
2023-04-11T23:39:01.447Z,99527.77
2023-04-11T23:41:30.716Z,99524.59
2023-04-11T23:44:00.395Z,99523.89
2023-04-11T23:46:29.566Z,99524.52
2023-04-11T23:48:58.614Z,99515.55
2023-04-11T23:51:27.813Z,99512.75
2023-04-11T23:53:57.214Z,99519.23
2023-04-11T23:56:27.331Z,99516.02
2023-04-11T23:58:56.459Z,99518.98
